Time;durP1;ratioP1;P1;durP2;ratioP2;P2;SDS_P1;SDS_P2;PMS_P1;PMS_P2;Temp;Humidity;BMP_temperature;BMP_pressure;BME280_temperature;BME280_humidity;BME280_pressure;Samples;Min_cycle;Max_cycle;Signal;HPM_P1;HPM_P2
2023/04/24 00:02:28;;;;;;;6.88;6.18;;;14.10;99.90;;;;;;10421387;28;20206;-85
2023/04/24 00:08:08;;;;;;;7.60;6.80;;;14.00;99.90;;;;;;10435985;28;20244;-85
2023/04/24 00:13:30;;;;;;;8.52;7.65;;;14.00;99.90;;;;;;10435032;28;20199;-85
2023/04/24 00:18:55;;;;;;;8.07;7.22;;;14.00;99.90;;;;;;10417813;28;20242;-85
2023/04/24 00:24:18;;;;;;;8.15;6.82;;;13.90;99.90;;;;;;10428783;28;20199;-85
2023/04/24 00:29:39;;;;;;;7.10;6.40;;;13.90;99.90;;;;;;10414447;28;20265;-85
2023/04/24 00:35:00;;;;;;;7.97;6.55;;;13.90;99.90;;;;;;10424509;28;20283;-85
2023/04/24 00:40:22;;;;;;;7.72;6.93;;;14.00;99.90;;;;;;10430217;28;20267;-85
2023/04/24 00:45:43;;;;;;;8.98;7.60;;;14.00;99.90;;;;;;10440720;28;20479;-85
2023/04/24 00:51:05;;;;;;;9.43;7.05;;;13.90;99.90;;;;;;10430172;28;20203;-85
2023/04/24 00:56:27;;;;;;;7.40;6.70;;;14.00;99.90;;;;;;10441012;28;20543;-84
2023/04/24 01:01:48;;;;;;;11.57;7.20;;;14.00;99.90;;;;;;10419601;28;20511;-85
2023/04/24 01:07:11;;;;;;;11.75;8.93;;;14.00;99.90;;;;;;10468289;28;20284;-85
2023/04/24 01:12:32;;;;;;;8.88;7.13;;;13.90;99.90;;;;;;10455233;28;20202;-85
2023/04/24 01:17:54;;;;;;;9.88;7.90;;;13.80;99.90;;;;;;10447834;28;20250;-85
2023/04/24 01:23:16;;;;;;;10.45;8.30;;;13.80;99.90;;;;;;10481905;28;20208;-85
2023/04/24 01:28:38;;;;;;;8.27;6.75;;;13.80;99.90;;;;;;10452202;28;20203;-85
2023/04/24 01:34:00;;;;;;;9.60;7.55;;;13.80;99.90;;;;;;10461694;28;20209;-85
2023/04/24 01:39:23;;;;;;;9.75;7.40;;;13.80;99.90;;;;;;10436199;28;20269;-85
2023/04/24 01:44:44;;;;;;;8.15;6.97;;;13.80;99.90;;;;;;10439254;28;20196;-85
2023/04/24 01:50:06;;;;;;;8.55;7.43;;;13.70;99.90;;;;;;10455910;28;20565;-85
2023/04/24 01:55:28;;;;;;;9.55;7.88;;;13.70;99.90;;;;;;10457081;28;20208;-84
2023/04/24 02:00:49;;;;;;;10.30;8.43;;;13.70;99.90;;;;;;10423982;28;20221;-85
2023/04/24 02:06:10;;;;;;;9.25;8.07;;;13.60;99.90;;;;;;10397784;28;20536;-84
2023/04/24 02:11:32;;;;;;;13.77;9.75;;;13.60;99.90;;;;;;10383416;28;20195;-85
2023/04/24 02:16:54;;;;;;;16.17;10.82;;;13.60;99.90;;;;;;10394793;28;20210;-85
2023/04/24 02:22:16;;;;;;;15.55;10.35;;;13.60;99.90;;;;;;10436923;28;20211;-85
2023/04/24 02:27:38;;;;;;;16.30;12.45;;;13.60;99.90;;;;;;10409727;28;20228;-85
2023/04/24 02:33:00;;;;;;;19.90;12.95;;;13.50;99.90;;;;;;10439423;28;20206;-85
2023/04/24 02:38:21;;;;;;;19.33;14.13;;;13.50;99.90;;;;;;10434707;28;20301;-85
2023/04/24 02:43:43;;;;;;;16.77;13.45;;;13.40;99.90;;;;;;10423387;28;20197;-84
2023/04/24 02:49:04;;;;;;;19.02;14.75;;;13.40;99.90;;;;;;10435959;28;20201;-83
2023/04/24 02:54:25;;;;;;;16.63;13.68;;;13.20;99.90;;;;;;10435303;28;20203;-84
2023/04/24 02:59:47;;;;;;;19.38;15.52;;;13.30;99.90;;;;;;10398574;28;20254;-85
2023/04/24 03:05:09;;;;;;;16.67;14.45;;;13.20;99.90;;;;;;10397732;28;20196;-84
2023/04/24 03:10:30;;;;;;;22.23;15.75;;;13.20;99.90;;;;;;10454588;28;20196;-84
2023/04/24 03:15:52;;;;;;;17.58;14.35;;;13.10;99.90;;;;;;10438161;28;20280;-85
2023/04/24 03:21:14;;;;;;;21.08;16.45;;;13.00;99.90;;;;;;10406761;28;20238;-84
2023/04/24 03:26:39;;;;;;;18.63;15.73;;;13.00;99.90;;;;;;10424580;28;20205;-85
2023/04/24 03:32:13;;;;;;;19.90;17.40;;;12.90;99.90;;;;;;10434153;28;20227;-84
2023/04/24 03:37:35;;;;;;;21.48;16.58;;;13.00;99.90;;;;;;10430690;28;20411;-84
2023/04/24 03:43:34;;;;;;;22.02;18.08;;;13.00;99.90;;;;;;10480102;28;20205;-83
2023/04/24 03:48:56;;;;;;;23.20;17.10;;;12.90;99.90;;;;;;10427102;28;20216;-84
2023/04/24 03:54:22;;;;;;;21.52;17.13;;;12.80;99.90;;;;;;10440412;28;20202;-85
2023/04/24 03:59:45;;;;;;;20.45;17.50;;;12.80;99.90;;;;;;10416542;28;20224;-84
2023/04/24 04:05:11;;;;;;;25.23;19.35;;;12.80;99.90;;;;;;10404839;28;20243;-84
2023/04/24 04:10:32;;;;;;;21.85;18.20;;;12.70;99.90;;;;;;10444755;28;20226;-85
2023/04/24 04:15:53;;;;;;;24.23;18.35;;;12.60;99.90;;;;;;10442558;28;20200;-84
2023/04/24 04:21:15;;;;;;;20.55;17.42;;;12.70;99.90;;;;;;10448261;28;20235;-84
2023/04/24 04:26:37;;;;;;;24.98;18.95;;;12.80;99.90;;;;;;10468449;28;20490;-85
2023/04/24 04:32:02;;;;;;;24.38;19.10;;;12.80;99.90;;;;;;10414790;28;20209;-84
2023/04/24 04:37:25;;;;;;;28.52;20.55;;;12.80;99.90;;;;;;10444914;28;20488;-84
2023/04/24 04:43:06;;;;;;;31.13;23.60;;;12.80;99.90;;;;;;10457397;28;20449;-84
2023/04/24 04:48:37;;;;;;;32.78;24.08;;;12.80;99.90;;;;;;10470076;28;20430;-84
2023/04/24 04:54:00;;;;;;;26.98;21.23;;;12.90;99.90;;;;;;10439561;28;20199;-84
2023/04/24 04:59:23;;;;;;;28.55;20.48;;;12.90;99.90;;;;;;10435439;28;20258;-84
2023/04/24 05:04:50;;;;;;;34.42;23.92;;;12.90;99.90;;;;;;10426828;28;20195;-84
2023/04/24 05:10:12;;;;;;;29.17;21.92;;;12.90;99.90;;;;;;10443087;28;20239;-85
2023/04/24 05:15:34;;;;;;;32.40;23.60;;;12.90;99.90;;;;;;10386147;28;20227;-86
2023/04/24 05:20:56;;;;;;;26.88;21.05;;;13.00;99.90;;;;;;10392776;28;20244;-84
2023/04/24 05:26:19;;;;;;;29.40;21.20;;;13.00;99.90;;;;;;10422038;28;20600;-85
2023/04/24 05:31:40;;;;;;;27.92;21.73;;;12.90;99.90;;;;;;10441982;28;20209;-84
2023/04/24 05:37:03;;;;;;;25.85;19.92;;;13.00;99.90;;;;;;10425264;28;20216;-84
2023/04/24 05:42:24;;;;;;;35.53;21.83;;;12.90;99.90;;;;;;10465487;28;20214;-84
2023/04/24 05:47:46;;;;;;;26.65;20.35;;;13.00;99.90;;;;;;10438418;28;20230;-85
2023/04/24 05:53:07;;;;;;;22.30;17.30;;;13.10;99.90;;;;;;10429803;28;20217;-85
2023/04/24 05:58:30;;;;;;;22.63;18.27;;;13.20;99.90;;;;;;10447876;28;20225;-84
2023/04/24 06:03:53;;;;;;;24.42;18.70;;;13.20;99.90;;;;;;10466207;28;20221;-85
2023/04/24 06:09:14;;;;;;;27.38;20.63;;;13.20;99.90;;;;;;10441493;28;20230;-91
2023/04/24 06:14:36;;;;;;;25.27;19.15;;;13.20;99.90;;;;;;10411347;28;20194;-88
2023/04/24 06:20:17;;;;;;;24.63;18.00;;;13.20;99.90;;;;;;10434133;28;20268;-89
2023/04/24 06:25:39;;;;;;;27.35;19.42;;;13.00;99.90;;;;;;10464025;28;20298;-88
2023/04/24 06:31:01;;;;;;;25.42;19.75;;;13.00;99.90;;;;;;10451284;28;20535;-86
2023/04/24 06:36:22;;;;;;;25.33;19.42;;;13.00;99.90;;;;;;10458824;28;20204;-87
2023/04/24 06:41:44;;;;;;;23.30;19.48;;;13.00;99.90;;;;;;10383246;28;20416;-88
2023/04/24 06:47:13;;;;;;;25.02;18.42;;;13.10;99.90;;;;;;10396382;28;20202;-88
2023/04/24 06:52:35;;;;;;;28.90;22.83;;;13.20;99.90;;;;;;10404138;28;20197;-87
2023/04/24 06:57:56;;;;;;;29.52;22.15;;;13.10;99.90;;;;;;10417987;28;20226;-85
2023/04/24 07:03:18;;;;;;;31.63;23.48;;;13.10;99.90;;;;;;10423379;28;20433;-86
2023/04/24 07:08:41;;;;;;;28.88;22.60;;;13.10;99.90;;;;;;10420892;28;20329;-87
2023/04/24 07:14:02;;;;;;;26.40;20.77;;;13.10;99.90;;;;;;10422441;28;20200;-88
2023/04/24 07:19:24;;;;;;;30.17;22.20;;;13.20;99.90;;;;;;10436448;28;20463;-87
2023/04/24 07:24:45;;;;;;;29.27;22.15;;;13.10;99.90;;;;;;10407611;28;20512;-85
2023/04/24 07:30:08;;;;;;;28.10;20.95;;;13.20;99.90;;;;;;10428347;28;20201;-83
2023/04/24 07:35:30;;;;;;;29.00;22.23;;;13.70;99.90;;;;;;10434469;28;20227;-83
2023/04/24 07:40:52;;;;;;;28.08;21.90;;;14.30;99.90;;;;;;10414725;28;20237;-84
2023/04/24 07:46:13;;;;;;;24.45;19.02;;;15.20;99.90;;;;;;10415790;28;20291;-83
2023/04/24 07:51:38;;;;;;;22.30;16.80;;;16.00;99.90;;;;;;10428293;28;20210;-84
2023/04/24 07:57:00;;;;;;;24.25;18.27;;;17.30;99.90;;;;;;10415435;28;20200;-83
2023/04/24 08:02:26;;;;;;;17.02;14.57;;;18.50;99.90;;;;;;10416261;28;20218;-83
2023/04/24 08:07:50;;;;;;;21.55;15.52;;;19.20;99.90;;;;;;10402358;28;20228;-86
2023/04/24 08:13:11;;;;;;;18.63;13.45;;;19.80;98.70;;;;;;10406489;28;20523;-85
2023/04/24 08:18:33;;;;;;;18.70;13.98;;;20.60;1.00;;;;;;10402356;28;20229;-83
2023/04/24 08:23:54;;;;;;;20.25;14.38;;;20.50;1.00;;;;;;10412141;28;20204;-88
2023/04/24 08:29:16;;;;;;;14.70;11.85;;;20.90;99.90;;;;;;10432913;28;20300;-86
2023/04/24 08:34:37;;;;;;;11.77;10.32;;;21.40;99.90;;;;;;10438456;28;20228;-85
2023/04/24 08:39:58;;;;;;;12.05;10.65;;;21.90;1.00;;;;;;10432009;28;20280;-86
2023/04/24 08:45:21;;;;;;;18.05;12.25;;;21.60;79.10;;;;;;10415297;28;20206;-85
2023/04/24 08:50:44;;;;;;;12.75;11.20;;;22.20;11.90;;;;;;10424533;28;20216;-89
2023/04/24 08:56:07;;;;;;;15.82;12.13;;;22.50;1.00;;;;;;10413309;28;20254;-88
2023/04/24 09:01:31;;;;;;;17.42;13.93;;;22.90;1.00;;;;;;10424452;28;20239;-86
2023/04/24 09:06:57;;;;;;;15.00;13.40;;;22.40;1.00;;;;;;10423158;28;20578;-88
2023/04/24 09:12:19;;;;;;;15.98;13.75;;;22.30;1.00;;;;;;10463232;28;20471;-88
2023/04/24 09:17:41;;;;;;;18.48;15.43;;;22.30;1.00;;;;;;10463719;28;20215;-88
2023/04/24 09:23:02;;;;;;;15.15;12.43;;;22.00;1.00;;;;;;10440649;28;20611;-89
2023/04/24 09:28:32;;;;;;;18.73;12.80;;;22.20;1.00;;;;;;10425256;28;20204;-88
2023/04/24 09:34:00;;;;;;;13.20;11.65;;;22.80;1.00;;;;;;10419446;28;20598;-91
2023/04/24 09:39:22;;;;;;;14.35;10.57;;;23.00;1.00;;;;;;10433548;28;20255;-88
2023/04/24 09:44:44;;;;;;;15.23;10.45;;;23.10;1.00;;;;;;10422206;28;20422;-89
2023/04/24 09:50:14;;;;;;;12.40;7.40;;;23.40;1.00;;;;;;10408332;28;20204;-86
2023/04/24 09:55:40;;;;;;;15.38;12.18;;;24.50;1.00;;;;;;10434836;28;20200;-85
2023/04/24 10:01:02;;;;;;;16.85;10.20;;;24.10;1.00;;;;;;10421543;28;20462;-85
2023/04/24 10:06:35;;;;;;;12.55;8.13;;;23.90;1.00;;;;;;10433748;28;20231;-84
2023/04/24 10:11:56;;;;;;;12.50;8.77;;;24.10;1.00;;;;;;10394383;28;20185;-86
2023/04/24 10:17:20;;;;;;;14.65;8.63;;;24.10;1.00;;;;;;10378660;28;20220;-84
2023/04/24 10:22:42;;;;;;;9.32;7.80;;;24.30;1.00;;;;;;10411820;28;20251;-85
2023/04/24 10:28:04;;;;;;;7.47;6.65;;;24.40;1.00;;;;;;10420773;28;20189;-85
2023/04/24 10:33:27;;;;;;;9.85;7.32;;;23.90;1.00;;;;;;10406222;28;20603;-85
2023/04/24 10:38:50;;;;;;;12.57;8.85;;;23.10;1.00;;;;;;10412443;28;20231;-84
2023/04/24 10:44:14;;;;;;;13.95;8.25;;;23.10;1.00;;;;;;10391318;28;20190;-85
2023/04/24 10:49:36;;;;;;;8.45;6.43;;;23.30;1.00;;;;;;10408523;28;20495;-83
2023/04/24 10:55:01;;;;;;;10.07;8.15;;;23.70;1.00;;;;;;10411281;28;20501;-87
2023/04/24 11:00:27;;;;;;;10.05;6.90;;;24.40;1.00;;;;;;10415674;28;20274;-83
2023/04/24 11:06:05;;;;;;;14.25;7.82;;;25.00;1.00;;;;;;10396704;28;20586;-84
2023/04/24 11:11:28;;;;;;;8.32;5.57;;;24.30;1.00;;;;;;10417841;28;20384;-86
2023/04/24 11:16:57;;;;;;;10.30;5.10;;;23.40;1.00;;;;;;10393888;28;20225;-87
2023/04/24 11:22:20;;;;;;;7.60;5.78;;;22.80;1.00;;;;;;10393772;28;20263;-89
2023/04/24 11:27:43;;;;;;;8.93;5.68;;;22.20;1.00;;;;;;10426991;28;20291;-88
2023/04/24 11:33:05;;;;;;;6.78;5.35;;;21.80;1.00;;;;;;10422861;28;20440;-89
2023/04/24 11:38:27;;;;;;;7.97;5.47;;;21.00;1.00;;;;;;10418505;28;20239;-87
2023/04/24 11:43:49;;;;;;;8.73;5.80;;;20.90;1.00;;;;;;10418512;28;20202;-89
2023/04/24 11:49:12;;;;;;;9.30;6.63;;;20.60;1.00;;;;;;10434134;28;20207;-87
2023/04/24 11:54:33;;;;;;;10.90;6.95;;;20.40;1.00;;;;;;10431893;28;20494;-89
2023/04/24 11:59:55;;;;;;;8.48;6.07;;;20.20;1.00;;;;;;10432541;28;20291;-89
2023/04/24 12:05:24;;;;;;;14.80;9.57;;;20.00;1.00;;;;;;10433598;28;20230;-87
2023/04/24 12:10:51;;;;;;;8.20;5.63;;;20.00;1.00;;;;;;10420171;28;20239;-92
2023/04/24 12:16:14;;;;;;;12.05;8.10;;;20.20;1.00;;;;;;10413355;28;20294;-88
2023/04/24 12:21:35;;;;;;;10.13;7.30;;;20.30;1.00;;;;;;10410777;28;20282;-86
2023/04/24 12:26:58;;;;;;;7.50;6.50;;;20.50;1.00;;;;;;10415465;28;20296;-87
2023/04/24 12:32:19;;;;;;;8.30;6.65;;;21.10;1.00;;;;;;10441742;28;20284;-91
2023/04/24 12:37:43;;;;;;;9.00;6.90;;;21.80;1.00;;;;;;10420337;28;20204;-84
2023/04/24 12:43:19;;;;;;;11.43;7.00;;;21.50;1.00;;;;;;10451919;28;20231;-84
2023/04/24 12:48:40;;;;;;;11.63;7.00;;;20.80;1.00;;;;;;10449366;28;20226;-84
2023/04/24 12:54:06;;;;;;;11.02;6.43;;;20.60;1.00;;;;;;10419327;28;20208;-86
2023/04/24 12:59:27;;;;;;;7.75;5.75;;;20.50;1.00;;;;;;10459617;28;20584;-87
2023/04/24 13:04:49;;;;;;;9.55;4.97;;;20.30;1.00;;;;;;10418006;28;20244;-83
2023/04/24 13:10:11;;;;;;;7.45;5.43;;;20.40;1.00;;;;;;10422286;28;20246;-86
2023/04/24 13:15:32;;;;;;;8.02;6.07;;;20.20;1.00;;;;;;10460921;28;20222;-87
2023/04/24 13:20:53;;;;;;;12.18;6.40;;;20.40;1.00;;;;;;10431661;28;20302;-91
2023/04/24 13:26:15;;;;;;;6.65;4.65;;;20.30;1.00;;;;;;10410117;28;20197;-83
2023/04/24 13:31:36;;;;;;;8.18;5.22;;;20.10;1.00;;;;;;10421193;28;20426;-82
2023/04/24 13:36:58;;;;;;;14.02;6.20;;;20.00;1.00;;;;;;10408175;28;20192;-78
2023/04/24 13:42:20;;;;;;;10.27;5.93;;;20.00;1.00;;;;;;10434439;28;20243;-82
2023/04/24 13:47:41;;;;;;;10.00;6.32;;;20.00;1.00;;;;;;10440820;28;20544;-86
2023/04/24 13:53:03;;;;;;;10.38;6.63;;;20.00;1.00;;;;;;10397025;28;20207;-85
2023/04/24 13:58:25;;;;;;;12.20;7.05;;;20.20;1.00;;;;;;10423174;28;20220;-87
2023/04/24 14:03:46;;;;;;;8.20;5.30;;;20.20;1.00;;;;;;10395957;28;20508;-86
2023/04/24 14:09:07;;;;;;;6.60;4.82;;;20.20;1.00;;;;;;10407881;28;20237;-85
2023/04/24 14:14:29;;;;;;;6.80;4.43;;;20.00;1.00;;;;;;10424084;28;20220;-83
2023/04/24 14:19:51;;;;;;;18.17;6.07;;;19.80;1.00;;;;;;10419622;28;20224;-87
2023/04/24 14:25:13;;;;;;;10.43;7.13;;;19.30;1.00;;;;;;10434981;28;20204;-87
2023/04/24 14:30:34;;;;;;;18.45;11.85;;;18.80;1.00;;;;;;10435990;28;20208;-89
2023/04/24 14:35:56;;;;;;;18.42;11.98;;;18.90;1.00;;;;;;10380004;28;20240;-86
2023/04/24 14:41:17;;;;;;;10.10;8.32;;;19.00;15.80;;;;;;10417614;28;20322;-83
2023/04/24 14:46:39;;;;;;;13.18;9.35;;;18.60;1.00;;;;;;10459939;28;20210;-85
2023/04/24 14:52:02;;;;;;;13.85;8.05;;;18.30;1.00;;;;;;10431267;28;20232;-85
2023/04/24 14:57:25;;;;;;;12.45;8.10;;;;;;;;;;10386044;28;20236;-89
2023/04/24 15:02:46;;;;;;;11.48;7.88;;;18.10;1.00;;;;;;10423987;28;20623;-84
2023/04/24 15:08:07;;;;;;;13.50;10.70;;;18.00;99.90;;;;;;10457674;28;20239;-85
2023/04/24 15:13:29;;;;;;;3.85;2.17;;;18.20;99.90;;;;;;10449198;28;20203;-84
2023/04/24 15:18:51;;;;;;;1.52;1.40;;;17.70;1.00;;;;;;10463274;28;20311;-83
2023/04/24 15:24:12;;;;;;;2.92;1.73;;;16.80;1.00;;;;;;10410631;28;20213;-84
2023/04/24 15:29:34;;;;;;;2.88;1.55;;;17.50;99.90;;;;;;10394465;28;20281;-83
2023/04/24 15:34:55;;;;;;;2.75;1.60;;;17.30;1.00;;;;;;10401852;28;20541;-84
2023/04/24 15:40:25;;;;;;;5.95;2.25;;;17.10;1.00;;;;;;10397309;28;20240;-82
2023/04/24 15:45:48;;;;;;;2.90;1.90;;;17.10;1.00;;;;;;10425272;28;20456;-83
2023/04/24 15:51:10;;;;;;;2.92;1.50;;;17.00;99.90;;;;;;10437857;28;20198;-84
2023/04/24 15:56:32;;;;;;;21.77;8.40;;;16.80;1.00;;;;;;10421778;28;20273;-84
2023/04/24 16:01:56;;;;;;;3.47;1.75;;;16.20;1.00;;;;;;10418310;28;20351;-84
2023/04/24 16:07:17;;;;;;;5.97;3.60;;;16.20;1.00;;;;;;10430577;28;20240;-83
2023/04/24 16:12:38;;;;;;;20.77;9.38;;;15.90;99.90;;;;;;10400511;28;20207;-84
2023/04/24 16:17:59;;;;;;;6.63;4.43;;;15.70;99.90;;;;;;10401806;28;20218;-84
2023/04/24 16:23:21;;;;;;;15.40;5.13;;;15.50;99.90;;;;;;10434928;28;20202;-83
2023/04/24 16:28:42;;;;;;;11.45;5.05;;;13.80;99.90;;;;;;10428888;28;20213;-84
2023/04/24 16:34:06;;;;;;;17.77;9.95;;;;;;;;;;10434635;28;20240;-84
2023/04/24 16:39:27;;;;;;;4.03;2.85;;;15.20;99.90;;;;;;10419419;28;20435;-84
2023/04/24 16:44:48;;;;;;;3.22;2.47;;;15.20;99.90;;;;;;10420377;28;20275;-84
2023/04/24 16:50:10;;;;;;;3.03;2.50;;;15.10;99.90;;;;;;10434131;28;20223;-84
2023/04/24 16:55:31;;;;;;;4.05;2.17;;;15.00;99.90;;;;;;10434458;28;20199;-85
2023/04/24 17:00:53;;;;;;;4.07;2.90;;;15.10;99.90;;;;;;10441153;28;20244;-84
2023/04/24 17:06:14;;;;;;;1.67;1.58;;;15.30;99.90;;;;;;10426694;28;20277;-84
2023/04/24 17:11:36;;;;;;;2.50;2.30;;;15.30;99.90;;;;;;10440816;28;20211;-85
2023/04/24 17:16:57;;;;;;;4.03;3.20;;;15.30;99.90;;;;;;10403629;28;20227;-84
2023/04/24 17:22:18;;;;;;;5.03;3.90;;;15.30;99.90;;;;;;10413831;28;20404;-84
2023/04/24 17:27:40;;;;;;;16.30;11.18;;;15.30;99.90;;;;;;10390464;28;20214;-84
2023/04/24 17:33:01;;;;;;;16.73;11.32;;;15.30;99.90;;;;;;10455481;28;20277;-84
2023/04/24 17:38:23;;;;;;;19.23;9.63;;;15.20;99.90;;;;;;10467564;28;20278;-84
2023/04/24 17:43:44;;;;;;;20.15;10.63;;;15.10;99.90;;;;;;10448366;28;20535;-83
2023/04/24 17:49:05;;;;;;;14.45;10.73;;;15.20;99.90;;;;;;10425559;28;20275;-84
2023/04/24 17:54:27;;;;;;;9.98;5.75;;;15.10;99.90;;;;;;10439476;28;20213;-85
2023/04/24 17:59:48;;;;;;;5.97;4.75;;;15.00;99.90;;;;;;10436927;28;20272;-84
2023/04/24 18:05:10;;;;;;;8.43;5.03;;;14.90;99.90;;;;;;10439325;28;20282;-85
2023/04/24 18:10:32;;;;;;;7.70;5.32;;;14.80;99.90;;;;;;10437958;28;20229;-84
2023/04/24 18:15:54;;;;;;;6.93;5.15;;;14.70;99.90;;;;;;10412727;28;20203;-84
2023/04/24 18:21:15;;;;;;;5.18;3.80;;;14.60;99.90;;;;;;10414700;28;20223;-84
2023/04/24 18:26:36;;;;;;;8.45;4.57;;;14.60;99.90;;;;;;10437817;28;20237;-85
2023/04/24 18:31:58;;;;;;;8.40;5.65;;;14.60;99.90;;;;;;10433339;28;20209;-84
2023/04/24 18:37:19;;;;;;;10.27;6.60;;;14.70;99.90;;;;;;10441741;28;20264;-84
2023/04/24 18:42:41;;;;;;;28.50;15.50;;;14.70;99.90;;;;;;10423467;28;20242;-84
2023/04/24 18:48:03;;;;;;;28.80;15.90;;;14.60;99.90;;;;;;10437457;28;20191;-84
2023/04/24 18:53:24;;;;;;;14.13;8.20;;;14.60;99.90;;;;;;10397597;28;20245;-84
2023/04/24 18:58:46;;;;;;;6.72;4.95;;;14.60;99.90;;;;;;10396054;28;20298;-85
2023/04/24 19:04:07;;;;;;;11.18;6.38;;;14.50;99.90;;;;;;10399517;28;20401;-84
2023/04/24 19:09:28;;;;;;;7.72;5.40;;;14.40;99.90;;;;;;10422363;28;20243;-84
2023/04/24 19:14:50;;;;;;;10.25;6.57;;;14.40;99.90;;;;;;10436715;28;20245;-84
2023/04/24 19:20:12;;;;;;;8.23;5.88;;;14.40;99.90;;;;;;10420323;28;20563;-85
2023/04/24 19:25:33;;;;;;;6.38;4.28;;;14.30;99.90;;;;;;10438653;28;20206;-84
2023/04/24 19:30:57;;;;;;;10.73;5.90;;;14.30;99.90;;;;;;10435860;28;20224;-84
2023/04/24 19:36:18;;;;;;;9.25;5.80;;;14.20;99.90;;;;;;10420935;28;20224;-85
2023/04/24 19:41:39;;;;;;;8.05;5.22;;;14.20;99.90;;;;;;10435977;28;20249;-84
2023/04/24 19:47:01;;;;;;;6.05;3.90;;;14.00;99.90;;;;;;10435658;28;20269;-84
2023/04/24 19:52:23;;;;;;;5.97;4.05;;;;;;;;;;10431678;28;20552;-84
2023/04/24 19:57:44;;;;;;;8.40;4.40;;;13.90;99.90;;;;;;10438348;28;20248;-85
2023/04/24 20:03:06;;;;;;;5.32;3.65;;;14.00;99.90;;;;;;10433908;28;20275;-85
2023/04/24 20:08:27;;;;;;;8.25;4.70;;;14.00;99.90;;;;;;10420322;28;20237;-85
2023/04/24 20:13:50;;;;;;;15.60;8.73;;;14.00;99.90;;;;;;10431535;28;20204;-85
2023/04/24 20:19:11;;;;;;;38.00;20.33;;;14.00;99.90;;;;;;10425686;28;20547;-85
2023/04/24 20:24:33;;;;;;;19.25;10.35;;;14.00;99.90;;;;;;10435736;28;20216;-84
2023/04/24 20:29:54;;;;;;;33.10;16.48;;;14.00;99.90;;;;;;10380457;28;20510;-85
2023/04/24 20:35:16;;;;;;;38.00;17.20;;;13.90;99.90;;;;;;10387646;28;20252;-84
2023/04/24 20:40:38;;;;;;;38.90;20.02;;;13.80;99.90;;;;;;10412201;28;20234;-84
2023/04/24 20:46:05;;;;;;;11.88;6.85;;;13.80;99.90;;;;;;10429017;28;20203;-84
2023/04/24 20:51:27;;;;;;;7.35;4.53;;;13.80;99.90;;;;;;10427842;28;20194;-85
2023/04/24 20:56:48;;;;;;;11.57;8.80;;;13.60;99.90;;;;;;10440077;28;20202;-84
2023/04/24 21:02:09;;;;;;;5.10;3.70;;;13.50;99.90;;;;;;10442083;28;20219;-84
2023/04/24 21:07:31;;;;;;;4.82;2.80;;;13.40;99.90;;;;;;10427339;28;20246;-85
2023/04/24 21:12:52;;;;;;;7.28;4.22;;;13.30;99.90;;;;;;10425159;28;20206;-85
2023/04/24 21:18:15;;;;;;;4.55;3.38;;;13.30;99.90;;;;;;10424316;28;20202;-85
2023/04/24 21:23:36;;;;;;;4.35;2.70;;;13.30;99.90;;;;;;10427064;28;20273;-85
2023/04/24 21:28:57;;;;;;;5.43;3.72;;;13.20;99.90;;;;;;10421490;28;20282;-85
2023/04/24 21:34:19;;;;;;;7.13;4.85;;;13.20;99.90;;;;;;10443046;28;20208;-85
2023/04/24 21:39:41;;;;;;;6.55;4.47;;;13.20;99.90;;;;;;10428890;28;20267;-85
2023/04/24 21:45:03;;;;;;;5.75;3.70;;;13.20;99.90;;;;;;10397314;28;20212;-85
2023/04/24 21:50:25;;;;;;;6.82;4.10;;;13.10;99.90;;;;;;10445919;28;20364;-85
2023/04/24 21:55:46;;;;;;;5.40;3.38;;;13.10;99.90;;;;;;10437592;28;20211;-85
2023/04/24 22:01:08;;;;;;;4.80;2.92;;;13.20;99.90;;;;;;10419235;28;20230;-85
2023/04/24 22:06:30;;;;;;;3.03;2.50;;;13.10;99.90;;;;;;10425184;28;20265;-85
2023/04/24 22:11:52;;;;;;;3.30;2.35;;;13.10;99.90;;;;;;10441455;28;20395;-84
2023/04/24 22:17:16;;;;;;;2.92;2.42;;;13.00;99.90;;;;;;10441493;28;20226;-84
2023/04/24 22:22:37;;;;;;;3.58;2.90;;;13.10;99.90;;;;;;10438283;28;20220;-85
2023/04/24 22:27:59;;;;;;;3.85;2.92;;;13.10;99.90;;;;;;10440121;28;20191;-85
2023/04/24 22:33:20;;;;;;;4.13;2.80;;;13.10;99.90;;;;;;10418237;28;20204;-85
2023/04/24 22:38:41;;;;;;;3.72;2.90;;;13.00;99.90;;;;;;10465552;28;20186;-85
2023/04/24 22:44:03;;;;;;;5.28;3.28;;;13.10;99.90;;;;;;10434313;28;20221;-85
2023/04/24 22:49:26;;;;;;;3.92;2.80;;;13.00;99.90;;;;;;10423210;28;20196;-84
2023/04/24 22:54:47;;;;;;;7.72;3.50;;;13.00;99.90;;;;;;10436877;28;20229;-85
2023/04/24 23:00:11;;;;;;;4.30;2.95;;;12.90;99.90;;;;;;10435067;28;20227;-85
2023/04/24 23:05:32;;;;;;;3.08;2.42;;;13.00;99.90;;;;;;10436237;28;20187;-84
2023/04/24 23:10:53;;;;;;;4.47;2.47;;;12.90;99.90;;;;;;10422791;28;20218;-85
2023/04/24 23:16:15;;;;;;;3.97;2.88;;;12.80;99.90;;;;;;10435714;28;20209;-84
2023/04/24 23:21:36;;;;;;;3.88;2.88;;;12.70;99.90;;;;;;10436311;28;20230;-84
2023/04/24 23:26:58;;;;;;;2.95;2.45;;;12.60;99.90;;;;;;10421606;28;20206;-84
2023/04/24 23:32:19;;;;;;;4.05;2.10;;;12.60;99.90;;;;;;10421591;28;20259;-85
2023/04/24 23:37:41;;;;;;;4.47;2.10;;;;;;;;;;10436069;28;20197;-85
2023/04/24 23:43:02;;;;;;;3.30;1.88;;;12.60;99.90;;;;;;10412029;28;20311;-85
2023/04/24 23:48:26;;;;;;;2.17;1.70;;;12.60;99.90;;;;;;10422578;28;20193;-84
2023/04/24 23:53:48;;;;;;;2.10;1.90;;;12.60;99.90;;;;;;10422917;28;20511;-85
2023/04/24 23:59:09;;;;;;;2.05;1.77;;;12.60;99.90;;;;;;10437847;28;20264;-84
